地図

経路データ

SID SEASON NUMBER BASIN SUBBASIN NAME ISO_TIME NATURE LAT LON WMO_WIND WMO_PRES WMO_AGENCY TRACK_TYPE DIST2LAND LANDFALL IFLAG USA_AGENCY USA_ATCF_ID USA_LAT USA_LON USA_RECORD USA_STATUS USA_WIND USA_PRES USA_SSHS USA_R34_NE USA_R34_SE USA_R34_SW USA_R34_NW USA_R50_NE USA_R50_SE USA_R50_SW USA_R50_NW USA_R64_NE USA_R64_SE USA_R64_SW USA_R64_NW USA_POCI USA_ROCI USA_RMW USA_EYE TOKYO_LAT TOKYO_LON TOKYO_GRADE TOKYO_WIND TOKYO_PRES TOKYO_R50_DIR TOKYO_R50_LONG TOKYO_R50_SHORT TOKYO_R30_DIR TOKYO_R30_LONG TOKYO_R30_SHORT TOKYO_LAND CMA_LAT CMA_LON CMA_CAT CMA_WIND CMA_PRES HKO_LAT HKO_LON HKO_CAT HKO_WIND HKO_PRES NEWDELHI_LAT NEWDELHI_LON NEWDELHI_GRADE NEWDELHI_WIND NEWDELHI_PRES NEWDELHI_CI NEWDELHI_DP NEWDELHI_POCI REUNION_LAT REUNION_LON REUNION_TYPE REUNION_WIND REUNION_PRES REUNION_TNUM REUNION_CI REUNION_RMW REUNION_R34_NE REUNION_R34_SE REUNION_R34_SW REUNION_R34_NW REUNION_R50_NE REUNION_R50_SE REUNION_R50_SW REUNION_R50_NW REUNION_R64_NE REUNION_R64_SE REUNION_R64_SW REUNION_R64_NW BOM_LAT BOM_LON BOM_TYPE BOM_WIND BOM_PRES BOM_TNUM BOM_CI BOM_RMW BOM_R34_NE BOM_R34_SE BOM_R34_SW BOM_R34_NW BOM_R50_NE BOM_R50_SE BOM_R50_SW BOM_R50_NW BOM_R64_NE BOM_R64_SE BOM_R64_SW BOM_R64_NW BOM_ROCI BOM_POCI BOM_EYE BOM_POS_METHOD BOM_PRES_METHOD NADI_LAT NADI_LON NADI_CAT NADI_WIND NADI_PRES WELLINGTON_LAT WELLINGTON_LON WELLINGTON_WIND WELLINGTON_PRES DS824_LAT DS824_LON DS824_STAGE DS824_WIND DS824_PRES TD9636_LAT TD9636_LON TD9636_STAGE TD9636_WIND TD9636_PRES TD9635_LAT TD9635_LON TD9635_WIND TD9635_PRES TD9635_ROCI NEUMANN_LAT NEUMANN_LON NEUMANN_CLASS NEUMANN_WIND NEUMANN_PRES MLC_LAT MLC_LON MLC_CLASS MLC_WIND MLC_PRES USA_GUST BOM_GUST BOM_GUST_PER REUNION_GUST REUNION_GUST_PER USA_SEAHGT USA_SEARAD_NE USA_SEARAD_SE USA_SEARAD_SW USA_SEARAD_NW STORM_SPEED STORM_DIR
2001277S10082 2002 75 SI MM NOT_NAMED 2001-10-04 06:00:00 TS -9.70000 81.9000 main 1753 1753 O___________O_ jtwc_sh SH012002 -9.70000 81.9000 TD 25 1002 -1 1006 120 30 -9.70000 81.9000 TC 25 4 155
2001277S10082 2002 75 SI MM NOT_NAMED 2001-10-04 09:00:00 TS -9.88249 81.9875 main 1777 1777 P___________P_ SH012002 -9.88249 81.9875 TD 25 1002 -1 1006 120 30 -9.88249 81.9875 TC 25 4 147
2001277S10082 2002 75 SI MM NOT_NAMED 2001-10-04 12:00:00 TS -10.0000 82.1000 main 1789 1789 O___________O_ jtwc_sh SH012002 -10.0000 82.1000 TD 25 1002 -1 1006 120 30 -10.0000 82.1000 TC 25 3 117
2001277S10082 2002 75 SI MM NOT_NAMED 2001-10-04 15:00:00 TS -10.0150 82.2500 main 1791 1791 P___________P_ SH012002 -10.0150 82.2500 TD 25 1002 -1 1007 135 25 -10.0150 82.2500 TC 25 3 90
2001277S10082 2002 75 SI MM NOT_NAMED 2001-10-04 18:00:00 TS -10.0000 82.4000 main 1792 1792 O___________O_ jtwc_sh SH012002 -10.0000 82.4000 TD 25 1002 -1 1008 150 20 -10.0000 82.4000 TC 25 3 96
2001277S10082 2002 75 SI MM NOT_NAMED 2001-10-04 21:00:00 TS -10.0425 82.5150 main 1794 1794 P___________P_ SH012002 -10.0425 82.5150 TD 25 1002 -1 1008 150 25 -10.0425 82.5150 TC 25 2 117
2001277S10082 2002 75 SI MM NOT_NAMED 2001-10-05 00:00:00 TS -10.1000 82.6000 main 1806 1806 O___________O_ jtwc_sh SH012002 -10.1000 82.6000 TD 25 1002 -1 1008 150 30 -10.1000 82.6000 TC 25 2 126
2001277S10082 2002 75 SI MM NOT_NAMED 2001-10-05 03:00:00 TS -10.1500 82.6650 main 1807 1807 P___________P_ SH012002 -10.1500 82.6650 TD 25 1002 -1 1006 150 40 -10.1500 82.6650 TC 25 1 137
2001277S10082 2002 75 SI MM NOT_NAMED 2001-10-05 06:00:00 TS -10.2000 82.7000 main 1818 1818 O___________O_ jtwc_sh SH012002 -10.2000 82.7000 TD 25 1002 -1 1004 150 50 -10.2000 82.7000 TC 25 1 163
2001277S10082 2002 75 SI MM NOT_NAMED 2001-10-05 09:00:00 TS -10.2500 82.7000 main 1818 1818 P___________P_ SH012002 -10.2500 82.7000 TD 25 1002 -1 1004 150 50 -10.2500 82.7000 TC 25 1 0
2001277S10082 2002 75 SI MM NOT_NAMED 2001-10-05 12:00:00 TS -10.3000 82.7000 main 1830 1830 O___________O_ jtwc_sh SH012002 -10.3000 82.7000 TD 25 1002 -1 1004 150 50 -10.3000 82.7000 TC 25 1 163
2001277S10082 2002 75 SI MM NOT_NAMED 2001-10-05 15:00:00 TS -10.3500 82.7425 main 1830 1841 P___________P_ SH012002 -10.3500 82.7425 TD 25 1000 -1 1004 150 50 -10.3500 82.7425 TC 25 1 137
2001277S10082 2002 75 SI MM NOT_NAMED 2001-10-05 18:00:00 TS -10.4000 82.8000 main 1842 1842 O___________O_ jtwc_sh SH012002 -10.4000 82.8000 TD 25 998 -1 1004 150 50 -10.4000 82.8000 TC 25 1 124
2001277S10082 2002 75 SI MM NOT_NAMED 2001-10-05 21:00:00 TS -10.4200 82.8500 main 1844 1844 P___________P_ SH012002 -10.4200 82.8500 TD 27 999 -1 1004 150 50 -10.4200 82.8500 TC 27 1 137
2001277S10082 2002 75 SI MM NOT_NAMED 2001-10-06 00:00:00 TS -10.5000 82.9000 main 1855 1855 O___________O_ jtwc_sh SH012002 -10.5000 82.9000 TD 30 1000 -1 1004 150 50 -10.5000 82.9000 TC 30 3 160
2001277S10082 2002 75 SI MM NOT_NAMED 2001-10-06 03:00:00 TS -10.7275 82.9650 main 1878 1878 P___________P_ SH012002 -10.7275 82.9650 TD 32 998 -1 1004 150 50 -10.7275 82.9650 TC 32 5 169
2001277S10082 2002 75 SI MM NOT_NAMED 2001-10-06 06:00:00 TS -11.0000 83.0000 main 1912 1912 O___________O_ jtwc_sh SH012002 -11.0000 83.0000 TS 35 997 0 1004 150 50 -11.0000 83.0000 TC 35 5 177
2001277S10082 2002 75 SI MM NOT_NAMED 2001-10-06 09:00:00 TS -11.2225 82.9800 main 1934 1934 P___________P_ SH012002 -11.2225 82.9800 TS 35 997 0 1004 150 50 -11.2225 82.9800 TC 35 4 193
2001277S10082 2002 75 SI MM NOT_NAMED 2001-10-06 12:00:00 TS -11.4000 82.9000 main 1955 1955 O___________O_ jtwc_sh SH012002 -11.4000 82.9000 TS 35 997 0 1004 150 50 -11.4000 82.9000 TC 35 4 217
2001277S10082 2002 75 SI MM NOT_NAMED 2001-10-06 15:00:00 TS -11.5225 82.7500 main 1964 1963 P___________P_ SH012002 -11.5225 82.7500 TS 32 998 -1 1004 150 50 -11.5225 82.7500 TC 32 4 236
2001277S10082 2002 75 SI MM NOT_NAMED 2001-10-06 18:00:00 TS -11.6000 82.6000 main 1973 1972 O___________O_ jtwc_sh SH012002 -11.6000 82.6000 TD 30 1000 -1 1005 150 50 -11.6000 82.6000 TC 30 3 238
2001277S10082 2002 75 SI MM NOT_NAMED 2001-10-06 21:00:00 TS -11.6575 82.5275 main 1983 1983 P___________P_ SH012002 -11.6575 82.5275 TD 30 1000 -1 1005 150 50 -11.6575 82.5275 TC 30 1 223
2001277S10082 2002 75 SI MM NOT_NAMED 2001-10-07 00:00:00 TS -11.7000 82.5000 main 1983 1983 O___________O_ jtwc_sh SH012002 -11.7000 82.5000 TD 30 1000 -1 1005 150 50 -11.7000 82.5000 TC 30 1 204
2001277S10082 2002 75 SI MM NOT_NAMED 2001-10-07 03:00:00 TS -11.7200 82.4925 main 1983 1983 P___________P_ SH012002 -11.7200 82.4925 TD 30 1000 -1 1005 150 50 -11.7200 82.4925 TC 30 1 0
2001277S10082 2002 75 SI MM NOT_NAMED 2001-10-07 06:00:00 TS -11.8000 82.5000 main 1994 1994 O___________O_ jtwc_sh SH012002 -11.8000 82.5000 TD 30 1000 -1 1005 150 50 -11.8000 82.5000 TC 30 3 0
2001277S10082 2002 75 SI MM NOT_NAMED 2001-10-07 09:00:00 TS -12.0200 82.5150 main 2016 2016 P___________P_ SH012002 -12.0200 82.5150 TD 30 1000 -1 1005 150 50 -12.0200 82.5150 TC 30 5 178
2001277S10082 2002 75 SI MM NOT_NAMED 2001-10-07 12:00:00 TS -12.3000 82.5000 main 2049 2049 O___________O_ jtwc_sh SH012002 -12.3000 82.5000 TD 30 1000 -1 1005 150 50 -12.3000 82.5000 TC 30 5 193
2001277S10082 2002 75 SI MM NOT_NAMED 2001-10-07 15:00:00 TS -12.5425 82.3926 main 2071 2071 P___________P_ SH012002 -12.5425 82.3926 TD 30 1000 -1 1005 150 50 -12.5425 82.3926 TC 30 5 201
2001277S10082 2002 75 SI MM NOT_NAMED 2001-10-07 18:00:00 TS -12.8000 82.3000 main 2103 2103 O___________O_ jtwc_sh SH012002 -12.8000 82.3000 TD 30 1000 -1 1005 150 50 -12.8000 82.3000 TC 30 6 188
2001277S10082 2002 75 SI MM NOT_NAMED 2001-10-07 21:00:00 TS -13.0900 82.3149 main 2137 2137 P___________P_ SH012002 -13.0900 82.3149 TD 27 1001 -1 1005 150 45 -13.0900 82.3149 TC 27 6 171
2001277S10082 2002 75 SI MM NOT_NAMED 2001-10-08 00:00:00 TS -13.4000 82.4000 main 2171 O___________O_ jtwc_sh SH012002 -13.4000 82.4000 TD 25 1002 -1 1005 150 40 -13.4000 82.4000 TC 25 6 166

IBTrACS Databaseについて

本データベースは、米国NOAAが公開する1842年以降の世界の熱帯低気圧のベストトラックデータアーカイブInternational Best Track Archive for Climate Stewardship (IBTrACS)を、ウェブで閲覧しやすい形式に変換したものです。

最終更新日:2021-10-08